Time;durP1;ratioP1;P1;durP2;ratioP2;P2;SDS_P1;SDS_P2;PMS_P1;PMS_P2;Temp;Humidity;BMP_temperature;BMP_pressure;BME280_temperature;BME280_humidity;BME280_pressure;Samples;Min_cycle;Max_cycle;Signal;HPM_P1;HPM_P2
2022/02/23 00:00:18;;;;;;;25.20;4.22;;;4.90;99.90;;;;;;5092169;28;20482;-38
2022/02/23 00:02:44;;;;;;;17.65;3.42;;;4.90;99.90;;;;;;5097143;28;20074;-38
2022/02/23 00:05:09;;;;;;;24.65;4.13;;;4.90;99.90;;;;;;5097080;28;20502;-38
2022/02/23 00:07:35;;;;;;;23.35;4.15;;;4.90;99.90;;;;;;5100418;28;20037;-38
2022/02/23 00:10:02;;;;;;;20.00;3.10;;;4.90;99.90;;;;;;5097984;28;20046;-38
2022/02/23 00:12:27;;;;;;;26.48;4.57;;;4.90;99.90;;;;;;5091417;28;20028;-39
2022/02/23 00:14:53;;;;;;;28.48;4.45;;;4.80;99.90;;;;;;5093222;28;20074;-38
2022/02/23 00:17:20;;;;;;;23.05;4.43;;;4.80;99.90;;;;;;5099137;28;20028;-38
2022/02/23 00:19:46;;;;;;;27.88;4.30;;;4.70;99.90;;;;;;5096638;28;20040;-38
2022/02/23 00:22:12;;;;;;;18.42;4.38;;;4.70;99.90;;;;;;5095111;28;20063;-38
2022/02/23 00:24:37;;;;;;;28.75;3.83;;;4.60;99.90;;;;;;5099764;28;20039;-38
2022/02/23 00:27:03;;;;;;;21.80;3.90;;;4.60;99.90;;;;;;5100853;28;20182;-38
2022/02/23 00:29:29;;;;;;;21.00;4.00;;;4.60;99.90;;;;;;5099869;28;20049;-38
2022/02/23 00:31:55;;;;;;;18.80;3.10;;;4.60;99.90;;;;;;5090103;28;20039;-38
2022/02/23 00:34:20;;;;;;;22.38;4.05;;;4.60;99.90;;;;;;5096486;28;20060;-40
2022/02/23 00:36:46;;;;;;;20.25;4.20;;;4.60;99.90;;;;;;5093891;28;20027;-38
2022/02/23 00:39:12;;;;;;;23.40;4.18;;;4.60;99.90;;;;;;5098310;28;20032;-39
2022/02/23 00:41:37;;;;;;;21.05;3.72;;;4.60;99.90;;;;;;5088177;28;20028;-38
2022/02/23 00:44:03;;;;;;;21.75;4.00;;;4.50;99.90;;;;;;5088782;28;20028;-42
2022/02/23 00:46:28;;;;;;;19.65;3.75;;;4.50;99.90;;;;;;5096353;28;20521;-38
2022/02/23 00:48:55;;;;;;;22.15;3.97;;;4.50;99.90;;;;;;5088600;28;20032;-38
2022/02/23 00:51:21;;;;;;;24.15;3.78;;;4.50;99.90;;;;;;5088250;28;20051;-38
2022/02/23 00:53:47;;;;;;;26.13;4.32;;;4.50;99.90;;;;;;5091867;28;20118;-37
2022/02/23 00:56:12;;;;;;;26.40;4.30;;;4.50;99.90;;;;;;5098023;28;20028;-37
2022/02/23 00:58:38;;;;;;;26.02;4.30;;;4.50;99.90;;;;;;5098175;28;20020;-37
2022/02/23 01:01:04;;;;;;;22.75;4.13;;;4.40;99.90;;;;;;5092168;28;20752;-41
2022/02/23 01:03:30;;;;;;;28.23;4.00;;;4.40;99.90;;;;;;5087686;28;20114;-37
2022/02/23 01:05:56;;;;;;;19.83;3.88;;;4.40;99.90;;;;;;5099517;28;20045;-38
2022/02/23 01:08:22;;;;;;;23.75;4.78;;;4.30;99.90;;;;;;5097090;28;20036;-38
2022/02/23 01:10:48;;;;;;;25.67;4.35;;;4.30;99.90;;;;;;5101394;28;20031;-38
2022/02/23 01:13:13;;;;;;;28.23;4.07;;;4.40;99.90;;;;;;5087896;28;20048;-38
2022/02/23 01:15:39;;;;;;;28.05;4.43;;;4.30;99.90;;;;;;5093633;28;20542;-38
2022/02/23 01:18:05;;;;;;;24.30;4.35;;;4.30;99.90;;;;;;5092413;28;20032;-38
2022/02/23 01:20:31;;;;;;;28.40;4.57;;;4.30;99.90;;;;;;5095626;28;20028;-37
2022/02/23 01:22:59;;;;;;;22.40;4.03;;;4.30;99.90;;;;;;5099039;28;20032;-39
2022/02/23 01:25:25;;;;;;;25.58;3.88;;;4.30;99.90;;;;;;5091511;28;20059;-38
2022/02/23 01:27:51;;;;;;;21.80;3.83;;;4.30;99.90;;;;;;5095774;28;20027;-37
2022/02/23 01:30:17;;;;;;;25.73;4.05;;;4.30;99.90;;;;;;5099874;28;20089;-38
2022/02/23 01:32:43;;;;;;;24.55;4.05;;;4.30;99.90;;;;;;5094846;28;20028;-37
2022/02/23 01:35:10;;;;;;;26.70;4.30;;;4.20;99.90;;;;;;5090918;28;20047;-38
2022/02/23 01:37:36;;;;;;;21.50;4.05;;;4.20;99.90;;;;;;5094816;28;20060;-38
2022/02/23 01:40:02;;;;;;;26.13;5.15;;;4.20;99.90;;;;;;5093963;28;20028;-37
2022/02/23 01:42:28;;;;;;;28.30;5.45;;;4.20;99.90;;;;;;5098347;28;20036;-41
2022/02/23 01:44:54;;;;;;;26.45;4.80;;;4.20;99.90;;;;;;5093881;28;20028;-37
2022/02/23 01:47:19;;;;;;;25.80;4.80;;;4.20;99.90;;;;;;5093379;28;20048;-38
2022/02/23 01:49:45;;;;;;;21.85;4.00;;;4.10;99.90;;;;;;5096570;28;20064;-35
2022/02/23 01:52:11;;;;;;;23.38;5.28;;;4.10;99.90;;;;;;5087167;28;20028;-35
2022/02/23 01:54:36;;;;;;;25.40;4.50;;;4.10;99.90;;;;;;5101156;28;20093;-35
2022/02/23 01:57:02;;;;;;;27.98;4.63;;;4.20;99.90;;;;;;5087925;28;20028;-35
2022/02/23 01:59:28;;;;;;;29.48;4.97;;;4.20;99.90;;;;;;5093887;28;20020;-35
2022/02/23 02:01:54;;;;;;;30.48;5.47;;;4.20;99.90;;;;;;5095508;28;20020;-35
2022/02/23 02:04:23;;;;;;;32.50;4.82;;;4.20;99.90;;;;;;5093554;28;20054;-36
2022/02/23 02:06:52;;;;;;;31.48;5.13;;;4.10;99.90;;;;;;5091214;28;20341;-36
2022/02/23 02:09:18;;;;;;;31.60;4.80;;;4.20;99.90;;;;;;5090410;28;20023;-43
2022/02/23 02:11:44;;;;;;;25.02;4.78;;;4.20;99.90;;;;;;5095553;28;20487;-36
2022/02/23 02:14:10;;;;;;;30.92;5.00;;;4.20;99.90;;;;;;5092695;28;20051;-35
2022/02/23 02:16:36;;;;;;;23.35;4.22;;;4.20;99.90;;;;;;5093680;28;20020;-36
2022/02/23 02:19:04;;;;;;;27.90;4.72;;;4.20;99.90;;;;;;5096370;28;20035;-38
2022/02/23 02:21:52;;;;;;;31.88;5.22;;;4.20;99.90;;;;;;5095466;28;20074;-36
2022/02/23 02:24:18;;;;;;;28.02;4.85;;;4.20;99.90;;;;;;5084524;28;20033;-35
2022/02/23 02:26:44;;;;;;;26.27;4.80;;;4.20;99.90;;;;;;5092282;28;20033;-40
2022/02/23 02:29:09;;;;;;;28.55;5.57;;;4.20;99.90;;;;;;5096115;28;20905;-38
2022/02/23 02:31:35;;;;;;;23.77;4.63;;;4.20;99.90;;;;;;5098977;28;20114;-35
2022/02/23 02:34:01;;;;;;;28.05;4.60;;;4.10;99.90;;;;;;5093384;28;20111;-36
2022/02/23 02:36:26;;;;;;;33.17;5.57;;;4.10;99.90;;;;;;5090530;28;20059;-35
2022/02/23 02:38:52;;;;;;;25.92;4.55;;;4.10;99.90;;;;;;5096811;28;20020;-35
2022/02/23 02:41:18;;;;;;;33.05;5.68;;;4.10;99.90;;;;;;5094114;28;20024;-35
2022/02/23 02:43:43;;;;;;;28.73;4.53;;;4.00;99.90;;;;;;5093957;28;20054;-35
2022/02/23 02:46:09;;;;;;;26.63;5.32;;;4.10;99.90;;;;;;5098727;28;20079;-35
2022/02/23 02:48:34;;;;;;;26.75;4.78;;;4.10;99.90;;;;;;5099141;28;20069;-35
2022/02/23 02:51:00;;;;;;;30.58;5.18;;;4.10;99.90;;;;;;5091223;28;20034;-35
2022/02/23 02:53:26;;;;;;;23.52;4.93;;;4.10;99.90;;;;;;5088765;28;20127;-35
2022/02/23 02:55:51;;;;;;;27.58;5.55;;;4.00;99.90;;;;;;5092343;28;20033;-35
2022/02/23 02:58:17;;;;;;;27.02;4.70;;;4.00;99.90;;;;;;5099008;28;20107;-35
2022/02/23 03:00:43;;;;;;;22.80;4.68;;;4.00;99.90;;;;;;5092420;28;20028;-35
2022/02/23 03:03:11;;;;;;;24.15;4.10;;;4.00;99.90;;;;;;5097744;28;20107;-38
2022/02/23 03:05:37;;;;;;;20.30;4.18;;;4.00;99.90;;;;;;5097660;28;20040;-36
2022/02/23 03:08:03;;;;;;;28.45;4.82;;;4.00;99.90;;;;;;5100237;28;20123;-35
2022/02/23 03:10:28;;;;;;;22.25;4.13;;;4.00;99.90;;;;;;5097664;28;20191;-35
2022/02/23 03:12:54;;;;;;;28.90;4.97;;;4.00;99.90;;;;;;5099659;28;20032;-35
2022/02/23 03:15:20;;;;;;;25.77;4.95;;;4.00;99.90;;;;;;5100212;28;20032;-35
2022/02/23 03:17:45;;;;;;;27.13;4.65;;;4.00;99.90;;;;;;5101380;28;20161;-35
2022/02/23 03:20:12;;;;;;;26.10;5.30;;;4.00;99.90;;;;;;5103086;28;20443;-35
2022/02/23 03:22:37;;;;;;;28.52;4.43;;;3.90;99.90;;;;;;5093511;28;21797;-35
2022/02/23 03:25:04;;;;;;;26.63;5.22;;;4.00;99.90;;;;;;5099221;28;20021;-35
2022/02/23 03:27:31;;;;;;;25.70;4.70;;;4.00;99.90;;;;;;5094573;28;20044;-44
2022/02/23 03:29:57;;;;;;;21.42;3.85;;;4.00;99.90;;;;;;5098905;28;20067;-35
2022/02/23 03:32:22;;;;;;;23.13;3.38;;;3.90;99.90;;;;;;5093893;28;20027;-34
2022/02/23 03:34:48;;;;;;;24.25;4.20;;;3.90;99.90;;;;;;5093870;28;20036;-35
2022/02/23 03:37:14;;;;;;;21.05;4.50;;;3.90;99.90;;;;;;5090121;28;20043;-35
2022/02/23 03:39:39;;;;;;;25.77;5.35;;;3.90;99.90;;;;;;5096986;28;20020;-35
2022/02/23 03:42:06;;;;;;;26.30;4.57;;;3.80;99.90;;;;;;5098266;28;20055;-35
2022/02/23 03:44:32;;;;;;;26.48;4.50;;;3.90;99.90;;;;;;5097066;28;20158;-40
2022/02/23 03:46:57;;;;;;;28.20;4.03;;;3.90;99.90;;;;;;5093779;28;20052;-35
2022/02/23 03:49:23;;;;;;;24.65;4.28;;;3.90;99.90;;;;;;5095636;28;20115;-35
2022/02/23 03:51:48;;;;;;;24.05;4.43;;;3.90;99.90;;;;;;5096980;28;20024;-35
2022/02/23 03:54:14;;;;;;;26.48;3.83;;;3.80;99.90;;;;;;5092925;28;20085;-35
2022/02/23 03:56:42;;;;;;;23.70;4.38;;;3.80;99.90;;;;;;5095584;28;20024;-35
2022/02/23 03:59:13;;;;;;;23.58;4.13;;;3.70;99.90;;;;;;5091529;28;20019;-35
2022/02/23 04:01:42;;;;;;;24.15;4.50;;;3.70;99.90;;;;;;5094761;28;20021;-38
2022/02/23 04:04:09;;;;;;;25.38;4.78;;;3.70;99.90;;;;;;5087669;28;20031;-39
2022/02/23 04:06:35;;;;;;;26.48;4.68;;;3.70;99.90;;;;;;5089440;28;20044;-37
2022/02/23 04:09:03;;;;;;;22.20;4.55;;;3.70;99.90;;;;;;5090533;28;20084;-35
2022/02/23 04:11:29;;;;;;;24.40;4.30;;;3.70;99.90;;;;;;5083641;28;20494;-37
2022/02/23 04:13:55;;;;;;;22.00;5.00;;;3.70;99.90;;;;;;5095393;28;20084;-37
2022/02/23 04:16:20;;;;;;;25.08;4.90;;;3.60;99.90;;;;;;5101021;28;20035;-35
2022/02/23 04:18:46;;;;;;;27.27;4.47;;;3.60;99.90;;;;;;5098795;28;20020;-35
2022/02/23 04:21:12;;;;;;;21.38;4.55;;;3.60;99.90;;;;;;5097899;28;20105;-35
2022/02/23 04:23:38;;;;;;;25.83;3.78;;;3.60;99.90;;;;;;5098557;28;20029;-35
2022/02/23 04:26:04;;;;;;;24.00;3.53;;;3.60;99.90;;;;;;5094735;28;20134;-35
2022/02/23 04:28:31;;;;;;;29.70;4.85;;;3.60;99.90;;;;;;5099237;28;20460;-35
2022/02/23 04:30:58;;;;;;;21.73;3.90;;;3.60;99.90;;;;;;5096815;28;20078;-35
2022/02/23 04:33:24;;;;;;;28.25;4.68;;;3.60;99.90;;;;;;5095556;28;20426;-36
2022/02/23 04:35:50;;;;;;;21.23;3.75;;;3.60;99.90;;;;;;5087680;28;20028;-36
2022/02/23 04:38:16;;;;;;;31.67;4.90;;;3.50;99.90;;;;;;5100262;28;20147;-36
2022/02/23 04:40:43;;;;;;;18.92;4.22;;;3.50;99.90;;;;;;5091803;28;20039;-39
2022/02/23 04:43:13;;;;;;;22.00;5.10;;;3.50;99.90;;;;;;5097478;28;20024;-35
2022/02/23 04:45:39;;;;;;;21.83;3.90;;;3.50;99.90;;;;;;5100772;28;20390;-35
2022/02/23 04:48:05;;;;;;;17.00;3.72;;;3.50;99.90;;;;;;5099867;28;20403;-40
2022/02/23 04:50:30;;;;;;;24.30;4.10;;;3.50;99.90;;;;;;5096115;28;20142;-36
2022/02/23 04:52:56;;;;;;;23.80;4.28;;;3.40;99.90;;;;;;5093744;28;20058;-36
2022/02/23 04:55:22;;;;;;;23.45;4.65;;;3.50;99.90;;;;;;5098619;28;20039;-36
2022/02/23 04:57:49;;;;;;;33.33;4.95;;;3.50;99.90;;;;;;5100419;28;20419;-40
2022/02/23 05:00:15;;;;;;;21.38;3.90;;;3.50;99.90;;;;;;5100385;28;20023;-37
2022/02/23 05:02:41;;;;;;;25.92;4.28;;;3.50;99.90;;;;;;5101155;28;20039;-41
2022/02/23 05:05:07;;;;;;;24.40;4.35;;;3.60;99.90;;;;;;5096898;28;20096;-37
2022/02/23 05:07:34;;;;;;;24.35;5.05;;;3.60;99.90;;;;;;5097231;28;20040;-36
2022/02/23 05:10:00;;;;;;;19.25;4.13;;;3.60;99.90;;;;;;5097432;28;20043;-36
2022/02/23 05:12:25;;;;;;;23.00;4.15;;;3.60;99.90;;;;;;5094920;28;20035;-36
2022/02/23 05:14:51;;;;;;;29.80;5.95;;;3.60;99.90;;;;;;5095231;28;20055;-36
2022/02/23 05:17:17;;;;;;;25.45;4.07;;;3.60;99.90;;;;;;5096373;28;20029;-36
2022/02/23 05:19:44;;;;;;;25.92;3.97;;;3.60;99.90;;;;;;5091425;28;20046;-46
2022/02/23 05:22:10;;;;;;;22.83;4.50;;;3.60;99.90;;;;;;5093617;28;20051;-36
2022/02/23 05:24:36;;;;;;;22.92;4.13;;;3.50;99.90;;;;;;5097388;28;20064;-36
2022/02/23 05:27:02;;;;;;;26.73;4.07;;;3.50;99.90;;;;;;5093739;28;20040;-36
2022/02/23 05:29:31;;;;;;;21.50;4.43;;;3.50;99.90;;;;;;5095030;28;20020;-36
2022/02/23 05:31:57;;;;;;;25.00;4.95;;;3.50;99.90;;;;;;5095622;28;20048;-35
2022/02/23 05:34:23;;;;;;;28.75;4.63;;;3.40;99.90;;;;;;5096191;28;20024;-36
2022/02/23 05:36:49;;;;;;;20.98;4.05;;;3.50;99.90;;;;;;5094178;28;20035;-36
2022/02/23 05:39:15;;;;;;;22.30;4.20;;;3.40;99.90;;;;;;5092752;28;20097;-36
2022/02/23 05:41:41;;;;;;;23.35;4.10;;;3.40;99.90;;;;;;5092888;28;20033;-36
2022/02/23 05:44:06;;;;;;;24.40;4.18;;;3.30;99.90;;;;;;5092957;28;20545;-37
2022/02/23 05:46:32;;;;;;;29.15;4.68;;;3.30;99.90;;;;;;5089706;28;20043;-40
2022/02/23 05:48:58;;;;;;;19.80;4.05;;;3.30;99.90;;;;;;5098180;28;20464;-36
2022/02/23 05:51:38;;;;;;;26.83;4.00;;;3.30;99.90;;;;;;5095558;28;20029;-36
2022/02/23 05:54:05;;;;;;;25.08;4.10;;;3.30;99.90;;;;;;5087679;28;20068;-36
2022/02/23 05:56:31;;;;;;;21.92;3.92;;;3.20;99.90;;;;;;5085938;28;20020;-36
2022/02/23 05:58:58;;;;;;;20.83;3.80;;;3.20;99.90;;;;;;5092498;28;20054;-36
2022/02/23 06:01:23;;;;;;;25.05;3.95;;;3.20;99.90;;;;;;5095879;28;20032;-35
2022/02/23 06:03:49;;;;;;;23.50;3.88;;;3.20;99.90;;;;;;5098212;28;20458;-36
2022/02/23 06:06:15;;;;;;;24.30;4.40;;;3.10;99.90;;;;;;5100517;28;20115;-36
2022/02/23 06:08:40;;;;;;;20.55;3.78;;;3.10;99.90;;;;;;5095219;28;20064;-38
2022/02/23 06:11:08;;;;;;;22.98;4.43;;;3.10;99.90;;;;;;5093523;28;20033;-36
2022/02/23 06:13:34;;;;;;;30.65;4.40;;;3.10;99.90;;;;;;5095650;28;20786;-37
2022/02/23 06:16:01;;;;;;;29.13;4.57;;;3.00;99.90;;;;;;5098969;28;20032;-37
2022/02/23 06:18:27;;;;;;;17.27;4.82;;;3.00;99.90;;;;;;5090667;28;20099;-36
2022/02/23 06:20:55;;;;;;;19.60;3.97;;;3.00;99.90;;;;;;5099504;28;21605;-36
2022/02/23 06:23:23;;;;;;;22.40;3.90;;;3.00;99.90;;;;;;5098425;28;20066;-36
2022/02/23 06:25:50;;;;;;;22.38;4.38;;;3.00;99.90;;;;;;5098991;28;20378;-36
2022/02/23 06:28:16;;;;;;;22.70;4.03;;;3.00;99.90;;;;;;5090490;28;20074;-37
2022/02/23 06:30:42;;;;;;;21.40;4.43;;;3.00;99.90;;;;;;5097929;28;20085;-36
2022/02/23 06:33:12;;;;;;;25.58;4.43;;;2.90;99.90;;;;;;5100289;28;20035;-36
2022/02/23 06:35:38;;;;;;;22.95;4.35;;;2.90;99.90;;;;;;5098296;28;20099;-36
2022/02/23 06:38:05;;;;;;;24.92;4.25;;;2.90;99.90;;;;;;5103822;28;20028;-36
2022/02/23 06:40:31;;;;;;;23.77;4.07;;;3.00;99.90;;;;;;5098942;28;20035;-36
2022/02/23 06:42:58;;;;;;;22.23;3.78;;;3.00;99.90;;;;;;5103246;28;20024;-36
2022/02/23 06:45:23;;;;;;;22.90;4.35;;;3.00;99.90;;;;;;5104829;28;20087;-35
2022/02/23 06:47:50;;;;;;;18.45;3.28;;;3.00;99.90;;;;;;5102461;28;20024;-35
2022/02/23 06:50:16;;;;;;;18.42;3.88;;;3.00;99.90;;;;;;5104791;28;20036;-35
2022/02/23 06:52:41;;;;;;;20.45;4.57;;;3.10;99.90;;;;;;5094818;28;20081;-35
2022/02/23 06:55:11;;;;;;;21.70;4.43;;;3.10;99.90;;;;;;5094638;28;20016;-36
2022/02/23 06:57:42;;;;;;;19.67;3.67;;;3.10;99.90;;;;;;5103640;28;20043;-35
2022/02/23 07:00:09;;;;;;;24.08;4.22;;;3.10;99.90;;;;;;5101324;28;20372;-35
2022/02/23 07:02:36;;;;;;;16.10;3.63;;;3.10;99.90;;;;;;5101256;28;20036;-35
2022/02/23 07:05:03;;;;;;;23.27;4.65;;;3.10;99.90;;;;;;5092978;28;20131;-38
2022/02/23 07:07:29;;;;;;;21.27;3.58;;;3.10;99.90;;;;;;5093069;28;20448;-35
2022/02/23 07:09:55;;;;;;;25.35;4.25;;;3.20;99.90;;;;;;5092426;28;20056;-38
2022/02/23 07:12:20;;;;;;;20.75;4.35;;;3.10;99.90;;;;;;5100715;28;20095;-35
2022/02/23 07:14:46;;;;;;;22.50;4.40;;;3.10;99.90;;;;;;5104252;28;20028;-36
2022/02/23 07:17:12;;;;;;;35.22;4.65;;;3.20;99.90;;;;;;5097670;28;20055;-36
2022/02/23 07:19:38;;;;;;;25.58;5.03;;;3.30;99.90;;;;;;5104088;28;20427;-35
2022/02/23 07:22:04;;;;;;;24.17;4.40;;;3.30;99.90;;;;;;5102133;28;20023;-36
2022/02/23 07:24:32;;;;;;;24.80;4.43;;;3.40;99.90;;;;;;5088597;28;20032;-36
2022/02/23 07:26:58;;;;;;;25.40;4.35;;;3.40;99.90;;;;;;5092755;28;20028;-35
2022/02/23 07:29:24;;;;;;;21.90;4.07;;;3.60;99.90;;;;;;5092079;28;20428;-35
2022/02/23 07:31:50;;;;;;;29.00;4.85;;;3.70;99.90;;;;;;5100500;28;20084;-35
2022/02/23 07:34:16;;;;;;;24.13;4.00;;;3.80;99.90;;;;;;5097326;28;20032;-36
2022/02/23 07:36:43;;;;;;;19.15;3.65;;;3.70;99.90;;;;;;5097806;28;20036;-35
2022/02/23 07:39:09;;;;;;;22.05;4.30;;;3.80;99.90;;;;;;5094469;28;20050;-35
2022/02/23 07:41:35;;;;;;;26.67;4.72;;;3.80;99.90;;;;;;5105518;28;20028;-35
2022/02/23 07:44:01;;;;;;;22.17;4.55;;;3.80;99.90;;;;;;5094590;28;20028;-35
2022/02/23 07:46:28;;;;;;;17.58;4.90;;;3.90;99.90;;;;;;5100573;28;20109;-36
2022/02/23 07:48:58;;;;;;;25.35;5.13;;;3.90;99.90;;;;;;5100628;28;20024;-35
2022/02/23 07:51:24;;;;;;;27.00;4.78;;;3.90;99.90;;;;;;5096987;28;20040;-36
2022/02/23 07:53:52;;;;;;;20.67;4.47;;;4.00;99.90;;;;;;5096487;28;20028;-35
2022/02/23 07:56:19;;;;;;;24.75;4.47;;;4.00;99.90;;;;;;5102657;28;20384;-37
2022/02/23 07:58:45;;;;;;;23.70;5.00;;;4.10;99.90;;;;;;5102871;28;20036;-37
2022/02/23 08:01:31;;;;;;;25.70;5.25;;;4.10;99.90;;;;;;5103225;28;20035;-36
2022/02/23 08:03:58;;;;;;;26.77;4.85;;;4.20;99.90;;;;;;5096652;28;20028;-36
2022/02/23 08:06:23;;;;;;;24.55;4.90;;;4.30;99.90;;;;;;5103922;28;20035;-35
2022/02/23 08:08:49;;;;;;;25.67;5.22;;;4.30;99.90;;;;;;5110788;28;20034;-35
2022/02/23 08:11:18;;;;;;;27.02;5.57;;;4.40;99.90;;;;;;5124614;28;20465;-39
2022/02/23 08:13:45;;;;;;;28.77;7.05;;;4.50;99.90;;;;;;5122854;28;20050;-35
2022/02/23 08:21:40;;;;;;;38.17;12.02;;;4.70;99.90;;;;;;5102975;28;20177;-35
2022/02/23 08:24:06;;;;;;;43.03;12.48;;;4.80;99.90;;;;;;5103857;28;20040;-36
2022/02/23 08:26:32;;;;;;;38.90;11.95;;;4.90;99.90;;;;;;5102808;28;20047;-36
2022/02/23 08:28:57;;;;;;;45.67;11.70;;;4.90;99.90;;;;;;5103222;28;20016;-35
2022/02/23 08:31:23;;;;;;;41.15;11.57;;;4.90;99.90;;;;;;5102638;28;20028;-36
2022/02/23 08:33:49;;;;;;;41.38;11.43;;;5.00;99.90;;;;;;5103071;28;20065;-35
2022/02/23 08:36:15;;;;;;;31.75;10.25;;;5.10;99.90;;;;;;5108867;28;20038;-35
2022/02/23 08:38:41;;;;;;;39.55;10.70;;;5.10;99.90;;;;;;5109258;28;20471;-41
2022/02/23 08:41:08;;;;;;;33.92;10.15;;;5.20;99.90;;;;;;5109060;28;20111;-36
2022/02/23 08:43:34;;;;;;;33.13;8.48;;;5.20;99.90;;;;;;5104790;28;20045;-37
2022/02/23 08:46:00;;;;;;;30.17;8.77;;;5.30;99.90;;;;;;5106967;28;20043;-37
2022/02/23 08:48:27;;;;;;;30.40;8.02;;;5.40;99.90;;;;;;5106463;28;20028;-36
2022/02/23 08:50:53;;;;;;;30.73;8.07;;;5.40;99.90;;;;;;5112062;28;20016;-36
2022/02/23 08:53:18;;;;;;;28.50;7.13;;;5.50;99.90;;;;;;5119830;28;20062;-49
2022/02/23 08:55:44;;;;;;;32.85;6.72;;;5.60;99.90;;;;;;5109145;28;20053;-46
2022/02/23 08:58:13;;;;;;;25.00;6.20;;;5.60;99.90;;;;;;5105214;28;20021;-43
2022/02/23 09:00:40;;;;;;;26.05;6.40;;;5.70;99.90;;;;;;5099882;28;20087;-43
2022/02/23 09:03:06;;;;;;;20.63;5.47;;;5.80;99.90;;;;;;5099014;28;20039;-46
2022/02/23 09:05:31;;;;;;;25.63;5.60;;;5.90;99.90;;;;;;5104209;28;20051;-43
2022/02/23 09:07:57;;;;;;;27.92;5.65;;;6.00;99.90;;;;;;5100108;28;20182;-50
2022/02/23 09:10:23;;;;;;;24.30;5.28;;;6.10;99.90;;;;;;5103117;28;20024;-36
2022/02/23 09:12:49;;;;;;;25.85;5.53;;;6.20;99.90;;;;;;5103654;28;20487;-37
2022/02/23 09:15:15;;;;;;;21.42;5.55;;;6.20;99.90;;;;;;5085968;28;20027;-36
2022/02/23 09:17:44;;;;;;;20.92;5.60;;;6.30;99.90;;;;;;5094669;28;20024;-39
2022/02/23 09:20:10;;;;;;;23.42;5.15;;;6.40;99.90;;;;;;5099479;28;20028;-36
2022/02/23 09:22:36;;;;;;;27.27;5.20;;;6.40;99.90;;;;;;5087154;28;20033;-36
2022/02/23 09:25:03;;;;;;;22.30;4.15;;;6.50;99.90;;;;;;5098212;28;20027;-45
2022/02/23 09:27:28;;;;;;;22.98;4.97;;;6.50;99.90;;;;;;5102000;28;20086;-44
2022/02/23 09:29:54;;;;;;;19.25;5.05;;;6.60;99.90;;;;;;5091848;28;20364;-38
2022/02/23 09:32:21;;;;;;;19.33;3.83;;;6.60;99.90;;;;;;5094728;28;20623;-43
2022/02/23 09:34:48;;;;;;;24.65;5.07;;;6.70;99.90;;;;;;5104237;28;20451;-40
2022/02/23 09:37:15;;;;;;;21.48;5.05;;;6.70;99.90;;;;;;5105333;28;20074;-45
2022/02/23 09:39:42;;;;;;;16.73;4.38;;;6.80;99.90;;;;;;5094470;28;20034;-38
2022/02/23 09:42:12;;;;;;;17.92;4.63;;;6.80;99.90;;;;;;5093702;28;20024;-38
2022/02/23 09:44:40;;;;;;;21.20;4.13;;;6.90;99.90;;;;;;5094679;28;20023;-38
2022/02/23 09:47:06;;;;;;;23.25;4.68;;;7.00;99.90;;;;;;5106883;28;20135;-37
2022/02/23 09:49:35;;;;;;;23.20;4.57;;;7.00;99.90;;;;;;5099976;28;20088;-37
2022/02/23 09:52:01;;;;;;;18.70;4.15;;;7.10;99.90;;;;;;5105976;28;20058;-38
2022/02/23 09:54:27;;;;;;;18.20;4.00;;;7.20;99.90;;;;;;5100933;28;20020;-39
2022/02/23 09:56:53;;;;;;;19.80;4.22;;;7.30;99.90;;;;;;5100002;28;20077;-38
2022/02/23 09:59:21;;;;;;;20.33;4.80;;;7.30;99.90;;;;;;5095208;28;20036;-38
2022/02/23 10:01:48;;;;;;;15.88;4.32;;;7.50;99.90;;;;;;5096688;28;20099;-36
2022/02/23 10:04:17;;;;;;;14.68;3.35;;;7.60;99.90;;;;;;5097531;28;20024;-36
2022/02/23 10:06:43;;;;;;;22.65;4.57;;;8.00;99.90;;;;;;5095948;28;20045;-37
2022/02/23 10:09:12;;;;;;;22.08;4.63;;;8.70;99.90;;;;;;5097421;28;20020;-37
2022/02/23 10:11:39;;;;;;;24.15;3.63;;;10.10;99.90;;;;;;5100618;28;20027;-37
2022/02/23 10:14:06;;;;;;;17.30;3.75;;;11.10;99.90;;;;;;5118675;28;20027;-37
2022/02/23 10:16:33;;;;;;;13.38;3.75;;;12.00;99.90;;;;;;5126252;28;20050;-37
2022/02/23 10:19:19;;;;;;;20.20;4.10;;;13.00;99.90;;;;;;5108323;28;20091;-37
2022/02/23 10:21:46;;;;;;;18.52;4.25;;;13.80;99.90;;;;;;5095292;28;20032;-38
2022/02/23 10:24:38;;;;;;;16.20;3.33;;;13.70;99.90;;;;;;5098320;28;20019;-38
2022/02/23 10:27:09;;;;;;;17.88;3.72;;;14.10;99.90;;;;;;5099179;28;20051;-37
2022/02/23 10:29:44;;;;;;;15.55;3.17;;;14.60;99.90;;;;;;5097736;28;20028;-38
2022/02/23 10:32:12;;;;;;;20.25;4.20;;;15.10;99.90;;;;;;5099800;28;20102;-38
2022/02/23 10:34:46;;;;;;;12.82;3.55;;;15.50;99.90;;;;;;5101424;28;20035;-39
2022/02/23 10:37:23;;;;;;;14.15;3.55;;;15.70;99.90;;;;;;5109171;28;20016;-39
2022/02/23 10:39:57;;;;;;;13.60;2.78;;;16.10;99.90;;;;;;5103099;28;20052;-41
2022/02/23 10:42:39;;;;;;;;;;;;;;;;;;;;;
2022/02/23 10:45:15;;;;;;;13.55;2.92;;;15.20;91.00;;;;;;5096733;28;20099;-39
2022/02/23 10:47:42;;;;;;;14.60;3.05;;;15.80;93.50;;;;;;5091269;28;20059;-40
2022/02/23 10:50:14;;;;;;;14.13;2.67;;;16.10;97.80;;;;;;5097786;28;20039;-39
2022/02/23 10:52:41;;;;;;;10.80;2.40;;;16.40;87.60;;;;;;5093475;28;20028;-39
2022/02/23 10:55:15;;;;;;;14.55;3.28;;;16.30;91.40;;;;;;5090269;28;20520;-40
2022/02/23 10:57:45;;;;;;;13.70;2.75;;;15.50;90.50;;;;;;5097833;28;20032;-44
2022/02/23 11:00:16;;;;;;;12.90;3.33;;;16.10;86.20;;;;;;5091857;28;20067;-40
2022/02/23 11:02:44;;;;;;;13.03;2.43;;;16.40;85.10;;;;;;5100452;28;20016;-40
2022/02/23 11:05:13;;;;;;;10.90;1.83;;;16.90;74.40;;;;;;5103954;28;20024;-39
2022/02/23 11:07:42;;;;;;;11.98;2.45;;;17.10;72.00;;;;;;5100918;28;20028;-40
2022/02/23 11:10:13;;;;;;;13.80;2.65;;;17.40;74.10;;;;;;5099859;28;20399;-39
2022/02/23 11:12:42;;;;;;;10.75;2.10;;;17.00;72.40;;;;;;5098664;28;20083;-39
2022/02/23 11:15:08;;;;;;;10.75;2.60;;;17.20;68.20;;;;;;5102086;28;20091;-39
2022/02/23 11:17:41;;;;;;;9.52;2.55;;;17.70;71.40;;;;;;5101185;28;20024;-40
2022/02/23 11:20:08;;;;;;;12.00;2.10;;;18.20;65.20;;;;;;5110621;28;20043;-39
2022/02/23 11:22:35;;;;;;;9.75;2.08;;;18.20;62.90;;;;;;5103447;28;20034;-40
2022/02/23 11:25:01;;;;;;;11.98;2.35;;;17.70;64.70;;;;;;5104129;28;20479;-39
2022/02/23 11:27:33;;;;;;;9.10;2.15;;;17.40;65.70;;;;;;5094902;28;20202;-39
2022/02/23 11:30:05;;;;;;;13.38;2.78;;;18.10;63.80;;;;;;5090480;28;20031;-40
2022/02/23 11:32:39;;;;;;;10.77;2.47;;;18.20;59.90;;;;;;5105029;28;20028;-40
2022/02/23 11:35:07;;;;;;;10.30;2.28;;;18.30;60.10;;;;;;5115795;28;20047;-40
2022/02/23 11:37:33;;;;;;;10.82;2.15;;;18.40;57.30;;;;;;5117904;28;20050;-42
2022/02/23 11:40:00;;;;;;;13.73;2.42;;;18.30;56.20;;;;;;5101510;28;20056;-40
2022/02/23 11:42:26;;;;;;;12.48;2.72;;;17.70;58.70;;;;;;5108342;28;20028;-41
2022/02/23 11:45:14;;;;;;;12.88;2.80;;;18.10;59.90;;;;;;5104441;28;20028;-40
2022/02/23 11:47:47;;;;;;;12.93;2.70;;;18.80;59.70;;;;;;5102767;28;20052;-39
2022/02/23 11:50:20;;;;;;;12.50;2.22;;;18.80;61.00;;;;;;5102783;28;20038;-40
2022/02/23 11:52:47;;;;;;;10.52;2.72;;;19.40;58.10;;;;;;5124165;28;20413;-40
2022/02/23 11:55:16;;;;;;;15.93;2.78;;;19.80;55.90;;;;;;5124044;28;20031;-40
2022/02/23 11:57:49;;;;;;;9.02;2.10;;;20.20;57.20;;;;;;5123309;28;20084;-40
2022/02/23 12:00:18;;;;;;;10.50;2.20;;;20.10;52.70;;;;;;5118342;28;20034;-43
2022/02/23 12:03:06;;;;;;;9.02;2.35;;;20.20;52.60;;;;;;5120033;28;20051;-41
2022/02/23 12:06:05;;;;;;;12.75;3.03;;;20.40;56.10;;;;;;5094199;28;20035;-40
2022/02/23 12:08:37;;;;;;;12.07;2.28;;;19.50;50.00;;;;;;5103318;28;20031;-40
2022/02/23 12:11:17;;;;;;;10.13;2.22;;;19.90;55.50;;;;;;5101945;28;20043;-40
2022/02/23 12:13:45;;;;;;;13.05;2.47;;;18.80;51.10;;;;;;5121069;28;20035;-40
2022/02/23 12:16:21;;;;;;;11.98;2.70;;;18.90;53.70;;;;;;5124089;28;20503;-40
2022/02/23 12:18:52;;;;;;;10.13;2.28;;;18.60;53.80;;;;;;5123900;28;20098;-40
2022/02/23 12:21:19;;;;;;;11.40;1.98;;;18.60;53.30;;;;;;5116876;28;20024;-40
2022/02/23 12:23:46;;;;;;;8.02;1.95;;;18.60;51.50;;;;;;5102857;28;20043;-41
2022/02/23 12:26:15;;;;;;;6.28;1.55;;;18.60;50.30;;;;;;5109446;28;20039;-41
2022/02/23 12:28:47;;;;;;;7.53;1.60;;;18.70;50.70;;;;;;5103749;28;20093;-40
2022/02/23 12:31:30;;;;;;;13.23;1.92;;;18.40;50.60;;;;;;5101679;28;20032;-43
2022/02/23 12:33:58;;;;;;;9.13;1.73;;;19.10;51.10;;;;;;5103099;28;20427;-42
2022/02/23 12:36:35;;;;;;;9.07;1.98;;;18.70;49.10;;;;;;5104884;28;20034;-40
2022/02/23 12:39:03;;;;;;;9.50;1.60;;;19.00;50.00;;;;;;5102397;28;20061;-42
2022/02/23 12:41:32;;;;;;;7.32;1.63;;;19.40;48.30;;;;;;5103169;28;20079;-41
2022/02/23 12:44:04;;;;;;;8.98;1.58;;;19.70;48.50;;;;;;5082218;28;20021;-43
2022/02/23 12:46:36;;;;;;;7.07;1.70;;;18.70;47.10;;;;;;5082575;28;20052;-41
2022/02/23 12:49:02;;;;;;;;;;;18.90;48.60;;;;;;5102064;28;20023;-40
2022/02/23 12:51:29;;;;;;;7.80;1.63;;;18.40;48.20;;;;;;5085485;28;20354;-42